Time;durP1;ratioP1;P1;durP2;ratioP2;P2;SDS_P1;SDS_P2;PMS_P1;PMS_P2;Temp;Humidity;BMP_temperature;BMP_pressure;BME280_temperature;BME280_humidity;BME280_pressure;Samples;Min_cycle;Max_cycle;Signal;HPM_P1;HPM_P2
2022/01/16 00:01:06;;;;;;;64.60;30.40;;;1.60;99.90;;;;;;5080636;28;20195;-71
2022/01/16 00:06:18;;;;;;;62.13;31.25;;;1.60;99.90;;;;;;5079202;28;20257;-71
2022/01/16 00:08:45;;;;;;;68.97;33.05;;;1.60;99.90;;;;;;5078899;28;20263;-72
2022/01/16 00:11:12;;;;;;;68.70;32.05;;;1.60;99.90;;;;;;5078647;28;20284;-72
2022/01/16 00:13:38;;;;;;;64.43;31.92;;;1.60;99.90;;;;;;5078734;28;20282;-71
2022/01/16 00:16:05;;;;;;;69.05;31.17;;;1.50;99.90;;;;;;5079167;28;20242;-71
2022/01/16 00:18:42;;;;;;;66.00;31.80;;;1.60;99.90;;;;;;5079118;28;20263;-72
2022/01/16 00:21:08;;;;;;;62.03;29.98;;;1.50;99.90;;;;;;5078744;28;20294;-71
2022/01/16 00:23:34;;;;;;;61.67;29.23;;;1.50;99.90;;;;;;5078971;28;20291;-71
2022/01/16 00:26:01;;;;;;;63.35;32.08;;;1.50;99.90;;;;;;5079032;28;20200;-71
2022/01/16 00:28:27;;;;;;;69.45;29.45;;;1.50;99.90;;;;;;5078061;28;20218;-71
2022/01/16 00:30:54;;;;;;;74.53;31.25;;;1.50;99.90;;;;;;5078684;28;20224;-71
2022/01/16 00:33:20;;;;;;;61.42;28.70;;;1.50;99.90;;;;;;5078084;28;20196;-71
2022/01/16 00:35:46;;;;;;;70.00;33.40;;;1.50;99.90;;;;;;5079526;28;20225;-71
2022/01/16 00:38:13;;;;;;;85.30;36.83;;;1.50;99.90;;;;;;5079871;28;20251;-73
2022/01/16 00:40:39;;;;;;;91.70;39.38;;;1.40;99.90;;;;;;5081022;28;20200;-71
2022/01/16 00:43:06;;;;;;;109.05;41.08;;;1.40;99.90;;;;;;5080256;28;20340;-71
2022/01/16 00:45:35;;;;;;;116.55;41.35;;;1.40;99.90;;;;;;5079320;28;20287;-71
2022/01/16 00:48:06;;;;;;;132.60;40.72;;;1.30;99.90;;;;;;5079576;28;20203;-72
2022/01/16 00:50:34;;;;;;;105.38;42.50;;;1.30;99.90;;;;;;5080886;28;20345;-71
2022/01/16 00:53:02;;;;;;;123.05;41.38;;;1.20;99.90;;;;;;5064442;28;20448;-71
2022/01/16 00:55:29;;;;;;;123.85;42.50;;;1.10;99.90;;;;;;5082884;28;20659;-71
2022/01/16 00:57:55;;;;;;;128.57;44.83;;;1.10;99.90;;;;;;5082215;28;20282;-71
2022/01/16 01:00:22;;;;;;;129.90;43.00;;;1.10;99.90;;;;;;5083980;28;20204;-71
2022/01/16 01:02:48;;;;;;;123.05;41.63;;;1.10;99.90;;;;;;5082017;28;20580;-71
2022/01/16 01:05:15;;;;;;;116.43;40.10;;;1.10;99.90;;;;;;5080621;28;20208;-71
2022/01/16 01:07:41;;;;;;;142.93;44.05;;;1.10;99.90;;;;;;5081363;28;20234;-71
2022/01/16 01:10:08;;;;;;;129.50;40.70;;;1.10;99.90;;;;;;5080933;28;20227;-71
2022/01/16 01:12:56;;;;;;;118.85;39.22;;;1.10;99.90;;;;;;5080128;28;20203;-71
2022/01/16 01:15:29;;;;;;;140.45;42.88;;;1.10;99.90;;;;;;5081872;28;20256;-71
2022/01/16 01:17:56;;;;;;;109.97;37.15;;;0.90;99.90;;;;;;5081318;28;20283;-72
2022/01/16 01:20:25;;;;;;;109.15;38.05;;;1.00;99.90;;;;;;5081180;28;20286;-71
2022/01/16 01:22:52;;;;;;;109.82;38.03;;;1.00;99.90;;;;;;5083841;28;20518;-71
2022/01/16 01:25:19;;;;;;;120.13;40.13;;;1.00;99.90;;;;;;5081587;28;20204;-72
2022/01/16 01:27:46;;;;;;;109.85;39.55;;;1.00;99.90;;;;;;5080570;28;20620;-71
2022/01/16 01:30:16;;;;;;;111.88;36.70;;;0.90;99.90;;;;;;5081236;28;20298;-71
2022/01/16 01:32:44;;;;;;;114.72;34.97;;;0.90;99.90;;;;;;5083757;28;20204;-71
2022/01/16 01:35:14;;;;;;;116.10;36.78;;;0.80;99.90;;;;;;5083112;28;20202;-71
2022/01/16 01:37:42;;;;;;;109.07;39.00;;;0.80;99.90;;;;;;5083274;28;20245;-71
2022/01/16 01:40:13;;;;;;;114.63;35.47;;;0.70;99.90;;;;;;5084249;28;20542;-72
2022/01/16 01:43:01;;;;;;;105.40;35.42;;;0.60;99.90;;;;;;5084534;28;20181;-71
2022/01/16 01:51:22;;;;;;;117.05;36.90;;;0.70;99.90;;;;;;5086478;28;20299;-71
2022/01/16 01:53:54;;;;;;;117.22;35.40;;;0.60;99.90;;;;;;5087888;28;20270;-71
2022/01/16 01:56:23;;;;;;;104.93;35.70;;;0.70;99.90;;;;;;5087633;28;20342;-71
2022/01/16 01:58:51;;;;;;;108.07;36.63;;;0.70;99.90;;;;;;5088250;28;20196;-71
2022/01/16 02:01:17;;;;;;;99.53;35.05;;;0.70;99.90;;;;;;5082257;28;20204;-70
2022/01/16 02:03:45;;;;;;;110.47;37.88;;;0.70;99.90;;;;;;5077462;28;20208;-70
2022/01/16 02:06:16;;;;;;;120.68;33.92;;;0.60;99.90;;;;;;5077271;28;20227;-70
2022/01/16 02:08:44;;;;;;;93.47;34.25;;;0.70;99.90;;;;;;5076908;28;20203;-70
2022/01/16 02:11:16;;;;;;;114.35;34.92;;;0.60;99.90;;;;;;5077314;28;20220;-70
2022/01/16 02:13:56;;;;;;;103.15;32.30;;;0.60;99.90;;;;;;5076944;28;20200;-70
2022/01/16 02:33:04;;;;;;;92.13;28.70;;;0.30;99.90;;;;;;5078140;28;20723;-70
2022/01/16 02:35:31;;;;;;;100.47;31.73;;;0.30;99.90;;;;;;5078054;28;20249;-70
2022/01/16 02:37:57;;;;;;;98.80;31.98;;;0.30;99.90;;;;;;5078291;28;20283;-70
2022/01/16 02:40:26;;;;;;;113.93;33.58;;;0.20;99.90;;;;;;5078039;28;20233;-70
2022/01/16 02:42:53;;;;;;;106.97;34.83;;;0.20;99.90;;;;;;5078016;28;20598;-70
2022/01/16 02:45:29;;;;;;;107.10;32.03;;;0.20;99.90;;;;;;5077946;28;20340;-70
2022/01/16 02:47:58;;;;;;;108.70;32.60;;;0.10;99.90;;;;;;5078076;28;20321;-70
2022/01/16 02:50:25;;;;;;;106.18;32.65;;;0.10;99.90;;;;;;5077845;28;20211;-70
2022/01/16 02:52:52;;;;;;;96.95;29.85;;;0.20;99.90;;;;;;5077984;28;20288;-70
2022/01/16 02:55:21;;;;;;;94.10;31.85;;;0.20;99.90;;;;;;5077963;28;20249;-70
2022/01/16 02:57:49;;;;;;;99.57;32.40;;;0.20;99.90;;;;;;5077138;28;20203;-71
2022/01/16 03:00:17;;;;;;;102.18;30.48;;;0.20;99.90;;;;;;5077211;28;20333;-70
2022/01/16 03:02:43;;;;;;;97.03;32.33;;;0.00;99.90;;;;;;5077101;28;20557;-70
2022/01/16 03:05:10;;;;;;;98.13;32.28;;;0.10;99.90;;;;;;5077392;28;20785;-70
2022/01/16 03:07:36;;;;;;;77.38;28.30;;;0.10;99.90;;;;;;5075488;28;20224;-71
2022/01/16 03:12:53;;;;;;;86.53;29.58;;;-0.10;99.90;;;;;;5076049;28;20189;-70
2022/01/16 03:15:21;;;;;;;81.57;29.83;;;-0.10;99.90;;;;;;5075883;28;20614;-70
2022/01/16 03:23:18;;;;;;;76.47;29.52;;;-0.20;99.90;;;;;;5076967;28;20291;-70
2022/01/16 03:25:45;;;;;;;72.82;28.75;;;-0.20;99.90;;;;;;5077249;28;20259;-69
2022/01/16 03:28:12;;;;;;;74.07;28.58;;;-0.30;99.90;;;;;;5077734;28;20200;-70
2022/01/16 03:30:39;;;;;;;73.80;27.63;;;-0.20;99.90;;;;;;5076659;28;20219;-69
2022/01/16 03:33:05;;;;;;;66.47;24.40;;;-0.20;99.90;;;;;;5075900;28;20196;-69
2022/01/16 03:35:32;;;;;;;70.10;27.00;;;-0.20;99.90;;;;;;5076899;28;20203;-69
2022/01/16 03:37:58;;;;;;;59.35;27.13;;;-0.20;99.90;;;;;;5077258;28;20196;-70
2022/01/16 03:40:25;;;;;;;61.90;25.83;;;-0.40;99.90;;;;;;5077214;28;20245;-70
2022/01/16 03:42:52;;;;;;;64.22;27.77;;;-0.40;99.90;;;;;;5075340;28;20253;-70
2022/01/16 03:45:18;;;;;;;74.38;27.45;;;-0.40;99.90;;;;;;5077107;28;20288;-69
2022/01/16 03:47:45;;;;;;;69.70;26.90;;;-0.40;99.90;;;;;;5075212;28;20207;-69
2022/01/16 03:50:11;;;;;;;66.90;25.63;;;-0.40;99.90;;;;;;5076372;28;20199;-70
2022/01/16 03:52:37;;;;;;;59.05;27.20;;;-0.40;99.90;;;;;;5075921;28;20231;-70
2022/01/16 03:55:07;;;;;;;62.30;25.23;;;-0.30;99.90;;;;;;5076154;28;20196;-69
2022/01/16 03:57:34;;;;;;;60.53;28.13;;;-0.30;99.90;;;;;;5074813;28;20397;-70
2022/01/16 04:00:00;;;;;;;57.38;26.35;;;-0.40;99.90;;;;;;5075277;28;20719;-71
2022/01/16 04:02:28;;;;;;;66.38;27.42;;;-0.40;99.90;;;;;;5075666;28;20203;-71
2022/01/16 04:04:54;;;;;;;62.25;24.80;;;-0.40;99.90;;;;;;5075567;28;20219;-70
2022/01/16 04:07:27;;;;;;;68.47;28.13;;;-0.30;99.90;;;;;;5075081;28;20223;-70
2022/01/16 04:09:53;;;;;;;61.03;27.20;;;-0.30;99.90;;;;;;5075331;28;20204;-70
2022/01/16 04:12:23;;;;;;;67.28;26.15;;;-0.30;99.90;;;;;;5074245;28;20216;-70
2022/01/16 04:17:21;;;;;;;55.25;24.92;;;-0.40;99.90;;;;;;5074923;28;20204;-71
2022/01/16 04:19:49;;;;;;;61.78;27.40;;;-0.40;99.90;;;;;;5075395;28;20184;-70
2022/01/16 04:22:16;;;;;;;61.30;26.50;;;-0.30;99.90;;;;;;5075836;28;20214;-71
2022/01/16 04:24:43;;;;;;;56.60;24.25;;;-0.30;99.90;;;;;;5075378;28;20208;-70
2022/01/16 04:27:11;;;;;;;70.85;29.15;;;-0.30;99.90;;;;;;5074939;28;20208;-70
2022/01/16 04:29:44;;;;;;;64.88;27.38;;;-0.30;99.90;;;;;;5074754;28;20231;-71
2022/01/16 04:32:12;;;;;;;65.78;25.70;;;-0.40;99.90;;;;;;5075582;28;20212;-70
2022/01/16 04:34:38;;;;;;;60.33;25.23;;;-0.40;99.90;;;;;;5075938;28;20222;-70
2022/01/16 04:37:05;;;;;;;63.88;26.75;;;-0.40;99.90;;;;;;5075627;28;20196;-70
2022/01/16 04:39:34;;;;;;;58.00;26.33;;;-0.40;99.90;;;;;;5075345;28;20199;-70
2022/01/16 04:44:49;;;;;;;63.00;27.25;;;-0.50;99.90;;;;;;5074913;28;20187;-71
2022/01/16 04:47:15;;;;;;;64.10;29.33;;;-0.40;99.90;;;;;;5075212;28;20200;-71
2022/01/16 04:49:42;;;;;;;56.30;26.30;;;-0.50;99.90;;;;;;5075595;28;20200;-70
2022/01/16 04:52:08;;;;;;;67.38;27.00;;;-0.40;99.90;;;;;;5074715;28;20239;-70
2022/01/16 04:54:34;;;;;;;56.03;27.48;;;-0.50;99.90;;;;;;5074904;28;20616;-70
2022/01/16 04:57:01;;;;;;;51.60;25.08;;;-0.40;99.90;;;;;;5074046;28;20204;-70
2022/01/16 04:59:27;;;;;;;55.28;25.55;;;-0.40;99.90;;;;;;5073645;28;20200;-71
2022/01/16 05:01:54;;;;;;;56.95;25.73;;;-0.50;99.90;;;;;;5073734;28;20204;-71
2022/01/16 05:04:20;;;;;;;61.08;26.60;;;-0.50;99.90;;;;;;5072899;28;20581;-70
2022/01/16 05:06:47;;;;;;;46.85;24.77;;;-0.40;99.90;;;;;;5073588;28;20706;-70
2022/01/16 05:09:13;;;;;;;57.63;26.77;;;-0.50;99.90;;;;;;5072675;28;20212;-73
2022/01/16 05:11:39;;;;;;;53.38;26.50;;;-0.50;99.90;;;;;;5074327;28;20234;-70
2022/01/16 05:16:40;;;;;;;57.00;26.50;;;-0.40;99.90;;;;;;5078804;28;20207;-70
2022/01/16 05:19:13;;;;;;;49.83;24.88;;;-0.40;99.90;;;;;;5075839;28;20612;-70
2022/01/16 05:21:42;;;;;;;53.85;25.08;;;-0.50;99.90;;;;;;5076377;28;20207;-70
2022/01/16 05:24:10;;;;;;;52.28;24.08;;;-0.50;99.90;;;;;;5077870;28;20200;-70
2022/01/16 05:26:43;;;;;;;54.80;24.85;;;-0.60;99.90;;;;;;5078713;28;20204;-70
2022/01/16 05:29:11;;;;;;;58.88;26.80;;;-0.60;99.90;;;;;;5078624;28;20204;-70
2022/01/16 05:31:44;;;;;;;67.70;28.27;;;-0.60;99.90;;;;;;5078623;28;20740;-70
2022/01/16 05:34:12;;;;;;;94.63;46.38;;;-0.70;99.90;;;;;;5077974;28;20204;-70
2022/01/16 05:36:39;;;;;;;62.25;28.50;;;-0.70;99.90;;;;;;5086945;28;20226;-71
2022/01/16 05:39:05;;;;;;;55.97;25.55;;;-0.70;99.90;;;;;;5090569;28;20282;-70
2022/01/16 05:41:32;;;;;;;64.63;27.85;;;-0.70;99.90;;;;;;5090640;28;20271;-71
2022/01/16 05:43:58;;;;;;;62.72;25.17;;;-0.70;99.90;;;;;;5090066;28;20196;-71
2022/01/16 05:46:25;;;;;;;61.58;26.23;;;-0.70;99.90;;;;;;5090327;28;20572;-71
2022/01/16 05:48:51;;;;;;;56.53;22.95;;;-0.70;99.90;;;;;;5089682;28;20206;-71
2022/01/16 05:51:17;;;;;;;55.33;24.05;;;-0.70;99.90;;;;;;5090545;28;20307;-71
2022/01/16 05:53:44;;;;;;;61.35;26.20;;;-0.70;99.90;;;;;;5090929;28;20243;-71
2022/01/16 05:56:15;;;;;;;62.35;26.67;;;-0.70;99.90;;;;;;5089502;28;20206;-71
2022/01/16 05:58:41;;;;;;;56.70;24.20;;;-0.70;99.90;;;;;;5089992;28;20207;-71
2022/01/16 06:01:08;;;;;;;58.95;26.00;;;-0.70;99.90;;;;;;5091167;28;20219;-71
2022/01/16 06:03:35;;;;;;;63.30;26.25;;;-0.70;99.90;;;;;;5091260;28;20199;-71
2022/01/16 06:06:01;;;;;;;65.38;27.15;;;-0.70;99.90;;;;;;5089760;28;20216;-71
2022/01/16 06:08:28;;;;;;;66.00;28.15;;;-0.80;99.90;;;;;;5091311;28;20200;-71
2022/01/16 06:10:54;;;;;;;66.88;28.58;;;-0.70;99.90;;;;;;5090425;28;20678;-71
2022/01/16 06:13:21;;;;;;;61.90;25.80;;;-0.60;99.90;;;;;;5090803;28;20222;-70
2022/01/16 06:15:47;;;;;;;59.30;27.02;;;-0.70;99.90;;;;;;5091188;28;20203;-70
2022/01/16 06:18:14;;;;;;;60.15;27.55;;;-0.60;99.90;;;;;;5089837;28;20215;-71
2022/01/16 06:20:41;;;;;;;65.57;29.35;;;-0.70;99.90;;;;;;5089655;28;20200;-71
2022/01/16 06:23:08;;;;;;;64.30;28.23;;;-0.70;99.90;;;;;;5089292;28;20200;-71
2022/01/16 06:25:35;;;;;;;62.20;29.02;;;-0.60;99.90;;;;;;5090642;28;20206;-71
2022/01/16 06:28:02;;;;;;;56.58;27.83;;;-0.60;99.90;;;;;;5089875;28;20243;-71
2022/01/16 06:30:28;;;;;;;63.35;28.98;;;-0.70;99.90;;;;;;5089008;28;20259;-71
2022/01/16 06:32:54;;;;;;;71.18;28.52;;;-0.70;99.90;;;;;;5090088;28;20220;-71
2022/01/16 06:35:21;;;;;;;58.95;27.15;;;-0.70;99.90;;;;;;5089572;28;20207;-71
2022/01/16 06:37:48;;;;;;;56.38;25.52;;;-0.60;99.90;;;;;;5089969;28;20234;-71
2022/01/16 06:40:15;;;;;;;59.03;27.85;;;-0.50;99.90;;;;;;5089707;28;20204;-71
2022/01/16 06:42:42;;;;;;;55.40;26.83;;;-0.50;99.90;;;;;;5090255;28;20204;-72
2022/01/16 06:45:10;;;;;;;62.67;28.10;;;-0.50;99.90;;;;;;5089574;28;20261;-69
2022/01/16 06:47:37;;;;;;;68.68;32.20;;;-0.50;99.90;;;;;;5088848;28;20257;-71
2022/01/16 06:50:06;;;;;;;58.85;27.17;;;-0.50;99.90;;;;;;5090031;28;20232;-72
2022/01/16 06:52:33;;;;;;;58.47;29.33;;;-0.50;99.90;;;;;;5088927;28;20257;-72
2022/01/16 06:54:59;;;;;;;53.95;28.77;;;-0.50;99.90;;;;;;5089383;28;20192;-71
2022/01/16 06:57:26;;;;;;;59.03;28.92;;;-0.50;99.90;;;;;;5089897;28;20200;-72
2022/01/16 06:59:53;;;;;;;56.95;27.95;;;-0.50;99.90;;;;;;5089663;28;20249;-71
2022/01/16 07:02:19;;;;;;;60.38;29.40;;;-0.50;99.90;;;;;;5088801;28;20211;-71
2022/01/16 07:04:46;;;;;;;54.88;28.25;;;-0.40;99.90;;;;;;5088093;28;20207;-71
2022/01/16 07:07:12;;;;;;;57.63;28.10;;;-0.40;99.90;;;;;;5076377;28;20212;-71
2022/01/16 07:09:39;;;;;;;55.88;27.38;;;-0.40;99.90;;;;;;5076173;28;20196;-71
2022/01/16 07:12:06;;;;;;;55.85;27.65;;;-0.40;99.90;;;;;;5076228;28;20227;-72
2022/01/16 07:14:33;;;;;;;55.80;25.80;;;-0.30;99.90;;;;;;5078266;28;20204;-70
2022/01/16 07:16:59;;;;;;;52.78;26.35;;;-0.30;99.90;;;;;;5088523;28;20242;-71
2022/01/16 07:19:26;;;;;;;53.38;25.98;;;-0.30;99.90;;;;;;5087834;28;20200;-71
2022/01/16 07:21:54;;;;;;;62.10;28.33;;;-0.30;99.90;;;;;;5086194;28;20728;-71
2022/01/16 07:24:21;;;;;;;58.35;26.25;;;-0.30;99.90;;;;;;5087877;28;20204;-72
2022/01/16 07:26:48;;;;;;;54.25;27.75;;;-0.30;99.90;;;;;;5088026;28;20200;-71
2022/01/16 07:29:14;;;;;;;58.97;31.27;;;-0.30;99.90;;;;;;5088030;28;20208;-71
2022/01/16 07:31:41;;;;;;;55.28;28.17;;;-0.30;99.90;;;;;;5087780;28;20293;-71
2022/01/16 07:34:07;;;;;;;57.60;28.80;;;-0.20;99.90;;;;;;5088747;28;20195;-71
2022/01/16 07:36:34;;;;;;;55.33;27.67;;;-0.10;99.90;;;;;;5088089;28;20204;-71
2022/01/16 07:39:00;;;;;;;57.45;29.63;;;-0.20;99.90;;;;;;5089007;28;20200;-71
2022/01/16 07:41:27;;;;;;;60.78;28.52;;;-0.10;99.90;;;;;;5088574;28;20255;-71
2022/01/16 07:43:53;;;;;;;58.42;28.20;;;-0.10;99.90;;;;;;5088012;28;20346;-71
2022/01/16 07:46:20;;;;;;;57.13;29.60;;;-0.10;99.90;;;;;;5088673;28;20199;-71
2022/01/16 07:48:46;;;;;;;67.80;34.10;;;-0.10;99.90;;;;;;5085711;28;20291;-71
2022/01/16 07:51:13;;;;;;;68.45;29.77;;;-0.10;99.90;;;;;;5089721;28;20297;-71
2022/01/16 07:53:39;;;;;;;64.07;29.65;;;0.00;99.90;;;;;;5086633;28;20232;-71
2022/01/16 07:56:05;;;;;;;51.63;26.85;;;0.00;99.90;;;;;;5087718;28;20203;-70
2022/01/16 07:58:32;;;;;;;60.63;29.13;;;0.00;99.90;;;;;;5088839;28;20188;-71
2022/01/16 08:00:58;;;;;;;65.93;29.08;;;0.00;99.90;;;;;;5086466;28;20204;-71
2022/01/16 08:03:25;;;;;;;61.78;28.77;;;0.00;99.90;;;;;;5086680;28;20204;-71
2022/01/16 08:05:51;;;;;;;54.40;29.00;;;0.10;99.90;;;;;;5082012;28;20293;-70
2022/01/16 08:08:18;;;;;;;59.28;27.98;;;0.10;99.90;;;;;;5080634;28;20270;-70
2022/01/16 08:10:44;;;;;;;64.93;29.67;;;0.00;99.90;;;;;;5081597;28;20326;-70
2022/01/16 08:13:11;;;;;;;64.10;28.83;;;0.10;99.90;;;;;;5080592;28;20766;-70
2022/01/16 08:15:37;;;;;;;65.32;30.05;;;0.10;99.90;;;;;;5080896;28;20255;-71
2022/01/16 08:18:03;;;;;;;66.20;30.48;;;0.10;99.90;;;;;;5080712;28;20286;-71
2022/01/16 08:20:30;;;;;;;68.85;30.27;;;0.10;99.90;;;;;;5080635;28;20674;-70
2022/01/16 08:22:56;;;;;;;65.97;29.25;;;0.10;99.90;;;;;;5081615;28;20195;-71
2022/01/16 08:25:25;;;;;;;73.15;32.95;;;0.10;99.90;;;;;;5080836;28;20259;-71
2022/01/16 08:27:51;;;;;;;71.78;33.72;;;0.10;99.90;;;;;;5081199;28;20625;-70
2022/01/16 08:30:18;;;;;;;61.00;30.23;;;0.10;99.90;;;;;;5081937;28;20328;-70
2022/01/16 08:32:44;;;;;;;69.82;31.23;;;0.10;99.90;;;;;;5082639;28;20310;-71
2022/01/16 08:35:12;;;;;;;70.25;32.70;;;0.10;99.90;;;;;;5080250;28;20204;-70
2022/01/16 08:37:39;;;;;;;70.68;31.67;;;0.20;99.90;;;;;;5080388;28;20291;-71
2022/01/16 08:40:07;;;;;;;76.57;31.75;;;0.20;99.90;;;;;;5080542;28;20207;-70
2022/01/16 08:42:35;;;;;;;79.13;35.13;;;0.20;99.90;;;;;;5080826;28;20204;-70
2022/01/16 08:45:02;;;;;;;71.03;31.80;;;0.30;99.90;;;;;;5081169;28;20227;-71
2022/01/16 08:47:28;;;;;;;79.47;34.72;;;0.30;99.90;;;;;;5081655;28;20196;-71
2022/01/16 08:49:55;;;;;;;75.28;32.00;;;0.30;99.90;;;;;;5081131;28;20570;-71
2022/01/16 08:52:22;;;;;;;69.32;32.95;;;0.20;99.90;;;;;;5079420;28;20227;-70
2022/01/16 08:54:48;;;;;;;71.47;31.50;;;0.30;99.90;;;;;;5076493;28;20196;-71
2022/01/16 08:57:14;;;;;;;71.47;32.28;;;0.30;99.90;;;;;;5074399;28;20246;-71
2022/01/16 08:59:41;;;;;;;83.88;35.75;;;0.30;99.90;;;;;;5081485;28;20196;-70
2022/01/16 09:02:08;;;;;;;77.53;35.17;;;0.20;99.90;;;;;;5081357;28;20210;-71
2022/01/16 09:04:34;;;;;;;85.18;38.08;;;0.30;99.90;;;;;;5081000;28;20280;-71
2022/01/16 09:07:01;;;;;;;86.20;36.20;;;0.20;99.90;;;;;;5080639;28;20220;-71
2022/01/16 09:09:27;;;;;;;82.90;36.33;;;0.30;99.90;;;;;;5080904;28;20203;-71
2022/01/16 09:11:53;;;;;;;65.60;31.15;;;0.30;99.90;;;;;;5081054;28;20279;-71
2022/01/16 09:14:20;;;;;;;79.43;33.67;;;0.40;99.90;;;;;;5081827;28;20717;-71
2022/01/16 09:16:46;;;;;;;82.57;36.42;;;0.40;99.90;;;;;;5081930;28;20203;-71
2022/01/16 09:19:13;;;;;;;75.25;32.90;;;0.30;99.90;;;;;;5082236;28;20199;-70
2022/01/16 09:21:39;;;;;;;81.60;33.35;;;0.40;99.90;;;;;;5082191;28;20200;-70
2022/01/16 09:24:06;;;;;;;87.97;37.85;;;0.40;99.90;;;;;;5082026;28;20200;-70
2022/01/16 09:26:32;;;;;;;83.85;36.70;;;0.40;99.90;;;;;;5081759;28;20203;-70
2022/01/16 09:28:59;;;;;;;85.15;39.03;;;0.40;99.90;;;;;;5082488;28;20211;-71
2022/01/16 09:31:25;;;;;;;77.97;33.72;;;0.50;99.90;;;;;;5081006;28;20615;-70
2022/01/16 09:33:54;;;;;;;80.05;35.80;;;0.50;99.90;;;;;;5080523;28;20233;-70
2022/01/16 09:36:21;;;;;;;82.75;37.85;;;0.60;99.90;;;;;;5081032;28;20202;-70
2022/01/16 09:38:47;;;;;;;78.07;34.50;;;0.60;99.90;;;;;;5081197;28;20199;-69
2022/01/16 09:41:14;;;;;;;80.25;35.25;;;0.60;99.90;;;;;;5080601;28;20204;-71
2022/01/16 09:43:41;;;;;;;78.57;36.05;;;0.50;99.90;;;;;;5082336;28;20204;-71
2022/01/16 09:46:08;;;;;;;87.43;35.95;;;0.50;99.90;;;;;;5082106;28;20207;-71
2022/01/16 09:48:35;;;;;;;87.93;33.00;;;0.50;99.90;;;;;;5081871;28;20208;-71
2022/01/16 09:51:06;;;;;;;83.13;32.47;;;0.50;99.90;;;;;;5081849;28;20252;-71
2022/01/16 09:53:35;;;;;;;82.13;34.40;;;0.60;99.90;;;;;;5083294;28;20242;-71
2022/01/16 09:56:01;;;;;;;84.97;35.50;;;0.50;99.90;;;;;;5080426;28;20264;-71
2022/01/16 09:58:28;;;;;;;98.93;37.63;;;0.50;99.90;;;;;;5079781;28;20196;-71
2022/01/16 10:00:55;;;;;;;81.35;37.03;;;0.50;99.90;;;;;;5081727;28;20276;-71
2022/01/16 10:03:43;;;;;;;75.28;33.05;;;0.60;99.90;;;;;;5081710;28;20212;-71
2022/01/16 10:06:16;;;;;;;75.55;35.15;;;0.60;99.90;;;;;;5081393;28;20223;-71
2022/01/16 10:08:44;;;;;;;79.68;37.67;;;0.60;99.90;;;;;;5081581;28;20565;-71
2022/01/16 10:11:34;;;;;;;80.65;37.65;;;0.60;99.90;;;;;;5076733;28;20199;-71
2022/01/16 10:14:13;;;;;;;91.93;36.40;;;0.60;99.90;;;;;;5076067;28;20223;-71
2022/01/16 10:16:41;;;;;;;84.45;32.60;;;0.70;99.90;;;;;;5076176;28;20237;-71
2022/01/16 10:19:28;;;;;;;73.60;32.05;;;0.70;99.90;;;;;;5076247;28;20635;-71
2022/01/16 10:22:03;;;;;;;82.45;33.50;;;0.70;99.90;;;;;;5076236;28;20655;-71
2022/01/16 10:24:34;;;;;;;80.63;34.28;;;0.80;99.90;;;;;;5076278;28;20184;-71
2022/01/16 10:27:10;;;;;;;79.13;35.20;;;0.80;99.90;;;;;;5077017;28;20242;-71
2022/01/16 10:29:38;;;;;;;78.90;32.92;;;0.80;99.90;;;;;;5077837;28;20280;-71
2022/01/16 10:32:22;;;;;;;77.93;33.33;;;0.80;99.90;;;;;;5076594;28;20284;-71
2022/01/16 10:35:08;;;;;;;76.82;32.40;;;0.80;99.90;;;;;;5078195;28;20241;-69
2022/01/16 10:37:35;;;;;;;85.03;34.33;;;0.80;99.90;;;;;;5077887;28;20245;-70
2022/01/16 10:40:09;;;;;;;79.75;33.92;;;0.90;99.90;;;;;;5077928;28;20249;-71
2022/01/16 10:42:36;;;;;;;80.20;32.60;;;1.00;99.90;;;;;;5076948;28;20257;-71
2022/01/16 10:45:12;;;;;;;80.53;34.83;;;1.00;99.90;;;;;;5076750;28;20302;-70
2022/01/16 10:47:54;;;;;;;68.22;32.13;;;1.00;99.90;;;;;;5077485;28;20191;-70
2022/01/16 10:50:23;;;;;;;75.57;31.55;;;1.00;99.90;;;;;;5076688;28;20215;-71
2022/01/16 10:53:01;;;;;;;58.50;30.55;;;1.00;99.90;;;;;;5077318;28;20232;-71
2022/01/16 10:55:34;;;;;;;72.05;32.13;;;1.00;99.90;;;;;;5077843;28;20536;-71
2022/01/16 10:58:07;;;;;;;66.47;31.92;;;1.10;99.90;;;;;;5077237;28;20655;-71
2022/01/16 11:00:34;;;;;;;58.63;29.00;;;1.20;99.90;;;;;;5077136;28;20628;-71
2022/01/16 11:03:03;;;;;;;56.88;28.83;;;1.20;99.90;;;;;;5076994;28;20623;-71
2022/01/16 11:05:36;;;;;;;74.28;30.30;;;1.30;99.90;;;;;;5076114;28;20211;-70
2022/01/16 11:08:05;;;;;;;56.80;28.70;;;1.40;99.90;;;;;;5074837;28;20728;-70
2022/01/16 11:10:35;;;;;;;59.58;28.55;;;1.30;99.90;;;;;;5074918;28;20589;-70
2022/01/16 11:13:05;;;;;;;63.95;28.50;;;1.40;99.90;;;;;;5075109;28;20216;-71
2022/01/16 11:15:34;;;;;;;59.33;29.50;;;1.40;99.90;;;;;;5075353;28;20185;-71
2022/01/16 11:18:01;;;;;;;59.90;29.75;;;1.30;99.90;;;;;;5075348;28;20200;-70
2022/01/16 11:20:31;;;;;;;65.95;30.33;;;1.30;99.90;;;;;;5075762;28;20257;-69
2022/01/16 11:23:01;;;;;;;56.60;29.67;;;1.30;99.90;;;;;;5075400;28;20216;-70
2022/01/16 11:25:32;;;;;;;67.78;30.67;;;1.30;99.90;;;;;;5075565;28;20204;-70
2022/01/16 11:28:02;;;;;;;54.53;28.70;;;1.30;99.90;;;;;;5076971;28;20191;-70
2022/01/16 11:30:34;;;;;;;61.28;32.95;;;1.40;99.90;;;;;;5077060;28;20180;-71
2022/01/16 11:33:01;;;;;;;61.72;30.10;;;1.50;99.90;;;;;;5076308;28;20204;-70
2022/01/16 11:35:29;;;;;;;67.18;30.50;;;1.60;99.90;;;;;;5076407;28;20192;-70
2022/01/16 11:37:56;;;;;;;70.97;30.35;;;1.60;99.90;;;;;;5075848;28;20268;-71
2022/01/16 11:40:38;;;;;;;66.45;31.17;;;1.60;99.90;;;;;;5075558;28;20196;-71
2022/01/16 11:43:19;;;;;;;61.35;31.08;;;1.60;99.90;;;;;;5076120;28;20188;-71
2022/01/16 11:46:04;;;;;;;69.85;32.08;;;1.60;99.90;;;;;;5075800;28;20207;-70
2022/01/16 11:48:41;;;;;;;69.57;31.73;;;1.60;99.90;;;;;;5075589;28;20203;-71
2022/01/16 11:51:34;;;;;;;64.43;31.77;;;1.70;99.90;;;;;;5075409;28;20190;-70
2022/01/16 11:54:32;;;;;;;66.43;33.78;;;1.60;99.90;;;;;;5075465;28;20223;-70
2022/01/16 11:57:01;;;;;;;69.63;32.08;;;1.60;99.90;;;;;;5075390;28;20203;-71
2022/01/16 11:59:30;;;;;;;62.22;32.08;;;1.50;99.90;;;;;;5074611;28;20212;-71
2022/01/16 12:02:00;;;;;;;67.07;34.15;;;1.60;99.90;;;;;;5076171;28;20196;-70
2022/01/16 12:04:29;;;;;;;65.50;32.75;;;1.60;99.90;;;;;;5076343;28;20639;-70
2022/01/16 12:07:11;;;;;;;70.13;33.20;;;1.60;99.90;;;;;;5076122;28;20227;-70
2022/01/16 12:12:13;;;;;;;62.30;34.35;;;1.60;99.90;;;;;;5076321;28;20191;-70
2022/01/16 12:15:00;;;;;;;67.57;32.35;;;1.60;99.90;;;;;;5075848;28;20200;-70
2022/01/16 12:17:28;;;;;;;68.45;30.67;;;1.60;99.90;;;;;;5073317;28;20200;-70
2022/01/16 12:19:58;;;;;;;60.30;32.47;;;1.70;99.90;;;;;;5075408;28;20204;-70
2022/01/16 12:22:46;;;;;;;65.90;33.17;;;1.70;99.90;;;;;;5075019;28;20207;-71
2022/01/16 12:25:52;;;;;;;58.78;30.67;;;1.70;99.90;;;;;;5075116;28;20207;-71
2022/01/16 12:28:25;;;;;;;63.67;31.45;;;1.70;99.90;;;;;;5074862;28;20192;-71
2022/01/16 12:30:55;;;;;;;76.07;34.70;;;1.70;99.90;;;;;;5074794;28;20253;-70
2022/01/16 12:33:24;;;;;;;64.53;31.73;;;1.70;99.90;;;;;;5074490;28;20257;-70
2022/01/16 12:35:51;;;;;;;72.00;34.80;;;1.70;99.90;;;;;;5075377;28;20295;-71
2022/01/16 12:38:35;;;;;;;67.75;34.75;;;1.70;99.90;;;;;;5075396;28;20200;-70
2022/01/16 12:41:11;;;;;;;63.95;30.67;;;1.70;99.90;;;;;;5076165;28;20195;-69
2022/01/16 12:43:41;;;;;;;67.78;33.28;;;1.80;99.90;;;;;;5075478;28;20210;-71
2022/01/16 12:46:10;;;;;;;65.30;32.47;;;1.70;99.90;;;;;;5075037;28;20200;-70
2022/01/16 12:48:45;;;;;;;58.78;31.08;;;1.80;99.90;;;;;;5075326;28;20207;-69
2022/01/16 12:51:15;;;;;;;65.10;31.02;;;1.80;99.90;;;;;;5076033;28;20689;-70
2022/01/16 12:53:44;;;;;;;66.00;33.40;;;1.80;99.90;;;;;;5075790;28;20236;-70
2022/01/16 12:56:28;;;;;;;64.97;30.40;;;1.90;99.90;;;;;;5075255;28;20211;-70
2022/01/16 12:59:11;;;;;;;63.35;31.10;;;1.90;99.90;;;;;;5074943;28;20183;-70
2022/01/16 13:01:54;;;;;;;70.28;30.35;;;1.90;99.90;;;;;;5074043;28;20207;-72
2022/01/16 13:04:33;;;;;;;66.30;31.75;;;2.00;99.90;;;;;;5075496;28;20203;-70
2022/01/16 13:07:02;;;;;;;67.72;34.08;;;2.00;99.90;;;;;;5075500;28;20314;-70
2022/01/16 13:09:30;;;;;;;65.65;32.95;;;2.00;99.90;;;;;;5075460;28;20267;-70
2022/01/16 13:11:59;;;;;;;63.08;32.13;;;2.00;99.90;;;;;;5075056;28;20204;-70
2022/01/16 13:14:34;;;;;;;58.30;31.20;;;2.10;99.90;;;;;;5074657;28;20234;-71
2022/01/16 13:17:05;;;;;;;68.75;31.65;;;2.10;99.90;;;;;;5074431;28;20202;-70
2022/01/16 13:19:49;;;;;;;62.97;30.67;;;2.10;99.90;;;;;;5074346;28;20192;-71
2022/01/16 13:22:17;;;;;;;67.65;32.80;;;2.00;99.90;;;;;;5075225;28;20222;-71
2022/01/16 13:24:49;;;;;;;65.72;32.00;;;2.00;99.90;;;;;;5074630;28;20580;-71
2022/01/16 13:27:32;;;;;;;61.53;29.45;;;2.00;99.90;;;;;;5074564;28;20208;-70